LPPD/PDL METAR and TAF weather

Enter ICAO airport designator
Station Type Date Time Source
LPPD METAR 2020/10/29 16:30 UTC NOAA

LPPD 291630Z 24012KT 9999 FEW006 SCT012 22/20 Q1018


Station Type Date Time Source
LPPD Decoded METAR 2020/10/29 16:30 UTC NOAA

Ponta Delgada / Nordela Acores , Portugal (LPPD) 37-44N 025-42W 72M
Oct 29, 2020 - 12:30 PM EDT / 2020.10.29 1630 UTC
Wind: from the WSW (240 degrees) at 14 MPH (12 KT):0
Visibility: greater than 7 mile(s):0
Sky conditions: partly cloudy
Temperature: 71 F (22 C)
Dew Point: 68 F (20 C)
Relative Humidity: 88%
Pressure (altimeter): 30.06 in. Hg (1018 hPa)
ob: LPPD 291630Z 24012KT 9999 FEW006 SCT012 22/20 Q1018
cycle: 16

Station Type Date Time Source
LPPD TAF 2020/10/29 12:18 UTC NOAA

TAF LPPD 291100Z 2912/3012 23015KT 9999 SCT012 BKN020
TEMPO 2912/3012 SCT004 BKN008 FEW016TCU PROB40
TEMPO 2912/3012 3000 RADZ BR SCT002 BKN004

Example: see airport list